sensor_id;sensor_type;location;lat;lon;timestamp;temperature;humidity
69335;SHT31;56477;52.742;15.242;2023-01-15T00:01:33;6.76;98.64
69335;SHT31;56477;52.742;15.242;2023-01-15T00:04:00;6.72;98.75
69335;SHT31;56477;52.742;15.242;2023-01-15T00:06:28;6.72;98.48
69335;SHT31;56477;52.742;15.242;2023-01-15T00:08:55;6.71;98.58
69335;SHT31;56477;52.742;15.242;2023-01-15T00:11:21;6.71;98.35
69335;SHT31;56477;52.742;15.242;2023-01-15T00:13:48;6.72;98.39
69335;SHT31;56477;52.742;15.242;2023-01-15T00:16:17;6.71;98.47
69335;SHT31;56477;52.742;15.242;2023-01-15T00:18:48;6.75;98.38
69335;SHT31;56477;52.742;15.242;2023-01-15T00:21:16;6.71;98.47
69335;SHT31;56477;52.742;15.242;2023-01-15T00:23:42;6.71;98.60
69335;SHT31;56477;52.742;15.242;2023-01-15T00:26:28;6.69;98.82
69335;SHT31;56477;52.742;15.242;2023-01-15T00:29:14;6.72;99.02
69335;SHT31;56477;52.742;15.242;2023-01-15T00:31:40;6.71;98.91
69335;SHT31;56477;52.742;15.242;2023-01-15T00:34:06;6.71;99.09
69335;SHT31;56477;52.742;15.242;2023-01-15T00:36:33;6.75;98.95
69335;SHT31;56477;52.742;15.242;2023-01-15T00:38:59;6.78;99.06
69335;SHT31;56477;52.742;15.242;2023-01-15T00:41:26;6.78;99.06
69335;SHT31;56477;52.742;15.242;2023-01-15T00:43:51;6.81;98.98
69335;SHT31;56477;52.742;15.242;2023-01-15T00:46:18;6.84;98.85
69335;SHT31;56477;52.742;15.242;2023-01-15T00:48:44;6.86;98.83
69335;SHT31;56477;52.742;15.242;2023-01-15T00:51:10;6.86;98.71
69335;SHT31;56477;52.742;15.242;2023-01-15T00:53:36;6.86;98.99
69335;SHT31;56477;52.742;15.242;2023-01-15T00:56:02;6.86;98.83
69335;SHT31;56477;52.742;15.242;2023-01-15T00:58:28;6.88;98.93
69335;SHT31;56477;52.742;15.242;2023-01-15T01:00:55;6.89;98.84
69335;SHT31;56477;52.742;15.242;2023-01-15T01:03:22;6.91;98.97
69335;SHT31;56477;52.742;15.242;2023-01-15T01:05:49;6.91;98.88
69335;SHT31;56477;52.742;15.242;2023-01-15T01:08:15;6.92;98.94
69335;SHT31;56477;52.742;15.242;2023-01-15T01:10:42;6.92;98.88
69335;SHT31;56477;52.742;15.242;2023-01-15T01:13:08;6.91;99.07
69335;SHT31;56477;52.742;15.242;2023-01-15T01:15:35;6.91;99.12
69335;SHT31;56477;52.742;15.242;2023-01-15T01:18:03;6.93;98.92
69335;SHT31;56477;52.742;15.242;2023-01-15T01:20:30;6.93;98.89
69335;SHT31;56477;52.742;15.242;2023-01-15T01:22:56;6.93;98.90
69335;SHT31;56477;52.742;15.242;2023-01-15T01:25:22;6.96;98.95
69335;SHT31;56477;52.742;15.242;2023-01-15T01:27:48;7.00;98.67
69335;SHT31;56477;52.742;15.242;2023-01-15T01:30:14;7.09;97.66
69335;SHT31;56477;52.742;15.242;2023-01-15T01:32:43;7.17;97.36
69335;SHT31;56477;52.742;15.242;2023-01-15T01:35:10;7.22;97.09
69335;SHT31;56477;52.742;15.242;2023-01-15T01:37:36;7.24;96.89
69335;SHT31;56477;52.742;15.242;2023-01-15T01:40:03;7.26;96.91
69335;SHT31;56477;52.742;15.242;2023-01-15T01:42:29;7.31;96.49
69335;SHT31;56477;52.742;15.242;2023-01-15T01:45:02;7.34;96.64
69335;SHT31;56477;52.742;15.242;2023-01-15T01:47:30;7.38;96.45
69335;SHT31;56477;52.742;15.242;2023-01-15T01:50:01;7.38;96.51
69335;SHT31;56477;52.742;15.242;2023-01-15T01:55:27;7.48;96.00
69335;SHT31;56477;52.742;15.242;2023-01-15T01:57:55;7.55;95.63
69335;SHT31;56477;52.742;15.242;2023-01-15T02:00:23;7.60;95.58
69335;SHT31;56477;52.742;15.242;2023-01-15T02:02:50;7.64;95.35
69335;SHT31;56477;52.742;15.242;2023-01-15T02:05:30;7.70;95.09
69335;SHT31;56477;52.742;15.242;2023-01-15T02:07:56;7.72;95.10
69335;SHT31;56477;52.742;15.242;2023-01-15T02:10:23;7.75;94.85
69335;SHT31;56477;52.742;15.242;2023-01-15T02:13:11;7.91;94.11
69335;SHT31;56477;52.742;15.242;2023-01-15T02:15:47;7.96;94.05
69335;SHT31;56477;52.742;15.242;2023-01-15T02:30:46;8.14;93.24
69335;SHT31;56477;52.742;15.242;2023-01-15T02:33:20;8.16;93.05
69335;SHT31;56477;52.742;15.242;2023-01-15T02:35:55;8.17;92.94
69335;SHT31;56477;52.742;15.242;2023-01-15T02:38:41;8.28;92.66
69335;SHT31;56477;52.742;15.242;2023-01-15T02:41:09;8.26;92.71
69335;SHT31;56477;52.742;15.242;2023-01-15T02:43:46;8.29;92.57
69335;SHT31;56477;52.742;15.242;2023-01-15T02:46:17;8.29;92.74
69335;SHT31;56477;52.742;15.242;2023-01-15T02:48:49;8.39;92.23
69335;SHT31;56477;52.742;15.242;2023-01-15T02:51:21;8.47;91.93
69335;SHT31;56477;52.742;15.242;2023-01-15T02:53:50;8.53;91.61
69335;SHT31;56477;52.742;15.242;2023-01-15T02:56:21;8.51;91.73
69335;SHT31;56477;52.742;15.242;2023-01-15T02:58:51;8.63;91.09
69335;SHT31;56477;52.742;15.242;2023-01-15T03:01:31;8.60;91.23
69335;SHT31;56477;52.742;15.242;2023-01-15T03:04:54;8.59;91.39
69335;SHT31;56477;52.742;15.242;2023-01-15T03:07:06;8.60;91.21
69335;SHT31;56477;52.742;15.242;2023-01-15T03:09:33;8.61;91.17
69335;SHT31;56477;52.742;15.242;2023-01-15T03:12:23;8.65;91.03
69335;SHT31;56477;52.742;15.242;2023-01-15T03:15:02;8.68;90.86
69335;SHT31;56477;52.742;15.242;2023-01-15T03:17:46;8.82;90.26
69335;SHT31;56477;52.742;15.242;2023-01-15T03:20:26;8.80;90.48
69335;SHT31;56477;52.742;15.242;2023-01-15T03:22:55;8.81;90.09
69335;SHT31;56477;52.742;15.242;2023-01-15T03:25:29;8.81;90.24
69335;SHT31;56477;52.742;15.242;2023-01-15T03:27:58;8.81;90.52
69335;SHT31;56477;52.742;15.242;2023-01-15T03:30:27;8.71;91.49
69335;SHT31;56477;52.742;15.242;2023-01-15T03:32:54;8.61;92.28
69335;SHT31;56477;52.742;15.242;2023-01-15T03:38:12;8.33;94.11
69335;SHT31;56477;52.742;15.242;2023-01-15T03:44:51;8.21;95.13
69335;SHT31;56477;52.742;15.242;2023-01-15T03:54:48;8.10;96.40
69335;SHT31;56477;52.742;15.242;2023-01-15T03:57:38;8.13;96.61
69335;SHT31;56477;52.742;15.242;2023-01-15T04:02:38;8.05;96.71
69335;SHT31;56477;52.742;15.242;2023-01-15T04:05:05;8.06;96.75
69335;SHT31;56477;52.742;15.242;2023-01-15T04:07:31;8.02;96.92
69335;SHT31;56477;52.742;15.242;2023-01-15T04:09:58;8.03;97.02
69335;SHT31;56477;52.742;15.242;2023-01-15T04:12:23;8.02;97.20
69335;SHT31;56477;52.742;15.242;2023-01-15T04:14:52;7.92;97.63
69335;SHT31;56477;52.742;15.242;2023-01-15T04:17:18;7.91;97.82
69335;SHT31;56477;52.742;15.242;2023-01-15T04:19:44;7.88;98.07
69335;SHT31;56477;52.742;15.242;2023-01-15T04:22:10;7.89;98.15
69335;SHT31;56477;52.742;15.242;2023-01-15T04:24:37;7.84;98.52
69335;SHT31;56477;52.742;15.242;2023-01-15T04:27:03;7.84;98.56
69335;SHT31;56477;52.742;15.242;2023-01-15T04:29:29;7.82;98.72
69335;SHT31;56477;52.742;15.242;2023-01-15T04:31:54;7.79;98.89
69335;SHT31;56477;52.742;15.242;2023-01-15T04:34:24;7.78;99.03
69335;SHT31;56477;52.742;15.242;2023-01-15T04:36:51;7.75;99.15
69335;SHT31;56477;52.742;15.242;2023-01-15T04:39:17;7.77;99.29
69335;SHT31;56477;52.742;15.242;2023-01-15T04:41:43;7.74;99.43
69335;SHT31;56477;52.742;15.242;2023-01-15T04:44:27;7.74;99.55
69335;SHT31;56477;52.742;15.242;2023-01-15T04:46:54;7.75;99.68
69335;SHT31;56477;52.742;15.242;2023-01-15T04:49:21;7.71;99.82
69335;SHT31;56477;52.742;15.242;2023-01-15T04:51:47;7.74;99.99
69335;SHT31;56477;52.742;15.242;2023-01-15T04:54:14;7.72;99.99
69335;SHT31;56477;52.742;15.242;2023-01-15T04:56:43;7.72;99.99
69335;SHT31;56477;52.742;15.242;2023-01-15T04:59:10;7.72;99.99
69335;SHT31;56477;52.742;15.242;2023-01-15T05:01:36;7.72;99.99
69335;SHT31;56477;52.742;15.242;2023-01-15T05:04:02;7.70;99.99
69335;SHT31;56477;52.742;15.242;2023-01-15T05:06:29;7.70;99.99
69335;SHT31;56477;52.742;15.242;2023-01-15T05:08:57;7.71;99.99
69335;SHT31;56477;52.742;15.242;2023-01-15T05:11:23;7.70;99.99
69335;SHT31;56477;52.742;15.242;2023-01-15T05:13:49;7.72;99.99
69335;SHT31;56477;52.742;15.242;2023-01-15T05:16:18;7.72;99.99
69335;SHT31;56477;52.742;15.242;2023-01-15T05:18:45;7.74;99.99
69335;SHT31;56477;52.742;15.242;2023-01-15T05:21:21;7.74;99.99
69335;SHT31;56477;52.742;15.242;2023-01-15T05:23:48;7.78;99.99
69335;SHT31;56477;52.742;15.242;2023-01-15T05:26:14;7.77;99.99
69335;SHT31;56477;52.742;15.242;2023-01-15T05:28:41;7.77;99.99
69335;SHT31;56477;52.742;15.242;2023-01-15T05:31:12;7.82;99.99
69335;SHT31;56477;52.742;15.242;2023-01-15T05:33:39;7.86;99.99
69335;SHT31;56477;52.742;15.242;2023-01-15T05:36:08;7.86;99.99
69335;SHT31;56477;52.742;15.242;2023-01-15T05:38:35;7.85;99.99
69335;SHT31;56477;52.742;15.242;2023-01-15T05:41:09;7.85;99.99
69335;SHT31;56477;52.742;15.242;2023-01-15T05:43:55;7.84;99.99
69335;SHT31;56477;52.742;15.242;2023-01-15T05:46:22;7.89;99.99
69335;SHT31;56477;52.742;15.242;2023-01-15T05:48:48;7.96;99.99
69335;SHT31;56477;52.742;15.242;2023-01-15T05:51:14;7.95;99.99
69335;SHT31;56477;52.742;15.242;2023-01-15T05:53:40;7.99;99.99
69335;SHT31;56477;52.742;15.242;2023-01-15T05:56:06;8.05;99.81
69335;SHT31;56477;52.742;15.242;2023-01-15T05:58:33;8.07;99.69
69335;SHT31;56477;52.742;15.242;2023-01-15T06:00:59;8.05;99.91
69335;SHT31;56477;52.742;15.242;2023-01-15T06:03:25;8.01;99.99
69335;SHT31;56477;52.742;15.242;2023-01-15T06:05:55;8.02;99.99
69335;SHT31;56477;52.742;15.242;2023-01-15T06:08:22;7.99;99.99
69335;SHT31;56477;52.742;15.242;2023-01-15T06:10:49;8.01;99.76
69335;SHT31;56477;52.742;15.242;2023-01-15T06:13:16;8.06;99.32
69335;SHT31;56477;52.742;15.242;2023-01-15T06:15:42;8.23;97.84
69335;SHT31;56477;52.742;15.242;2023-01-15T06:18:08;8.29;97.91
69335;SHT31;56477;52.742;15.242;2023-01-15T06:20:38;7.92;94.12
69335;SHT31;56477;52.742;15.242;2023-01-15T06:23:04;7.51;93.98
69335;SHT31;56477;52.742;15.242;2023-01-15T06:25:34;7.22;95.16
69335;SHT31;56477;52.742;15.242;2023-01-15T06:28:06;7.07;95.87
69335;SHT31;56477;52.742;15.242;2023-01-15T06:30:32;6.97;96.98
69335;SHT31;56477;52.742;15.242;2023-01-15T06:32:59;6.91;97.35
69335;SHT31;56477;52.742;15.242;2023-01-15T06:35:25;6.85;97.76
69335;SHT31;56477;52.742;15.242;2023-01-15T06:37:51;6.85;98.22
69335;SHT31;56477;52.742;15.242;2023-01-15T06:40:17;6.84;98.33
69335;SHT31;56477;52.742;15.242;2023-01-15T06:42:44;6.81;98.66
69335;SHT31;56477;52.742;15.242;2023-01-15T06:45:36;6.79;98.77
69335;SHT31;56477;52.742;15.242;2023-01-15T06:48:21;6.61;98.19
69335;SHT31;56477;52.742;15.242;2023-01-15T06:50:47;6.49;98.35
69335;SHT31;56477;52.742;15.242;2023-01-15T06:53:13;6.40;98.43
69335;SHT31;56477;52.742;15.242;2023-01-15T06:55:39;6.27;98.42
69335;SHT31;56477;52.742;15.242;2023-01-15T06:58:05;6.21;98.45
69335;SHT31;56477;52.742;15.242;2023-01-15T07:00:30;6.18;98.80
69335;SHT31;56477;52.742;15.242;2023-01-15T07:03:00;6.18;98.73
69335;SHT31;56477;52.742;15.242;2023-01-15T07:05:26;6.14;98.78
69335;SHT31;56477;52.742;15.242;2023-01-15T07:07:53;6.07;98.52
69335;SHT31;56477;52.742;15.242;2023-01-15T07:10:18;6.03;98.71
69335;SHT31;56477;52.742;15.242;2023-01-15T07:12:44;6.03;98.95
69335;SHT31;56477;52.742;15.242;2023-01-15T07:15:11;6.00;98.20
69335;SHT31;56477;52.742;15.242;2023-01-15T07:17:37;5.99;97.93
69335;SHT31;56477;52.742;15.242;2023-01-15T07:20:03;5.96;97.40
69335;SHT31;56477;52.742;15.242;2023-01-15T07:22:30;5.95;96.71
69335;SHT31;56477;52.742;15.242;2023-01-15T07:24:56;5.90;95.81
69335;SHT31;56477;52.742;15.242;2023-01-15T07:27:22;5.89;95.20
69335;SHT31;56477;52.742;15.242;2023-01-15T07:29:48;5.85;95.16
69335;SHT31;56477;52.742;15.242;2023-01-15T07:32:17;5.86;94.64
69335;SHT31;56477;52.742;15.242;2023-01-15T07:34:43;5.78;94.86
69335;SHT31;56477;52.742;15.242;2023-01-15T07:37:09;5.75;94.98
69335;SHT31;56477;52.742;15.242;2023-01-15T07:39:35;5.63;93.41
69335;SHT31;56477;52.742;15.242;2023-01-15T07:42:01;5.49;92.12
69335;SHT31;56477;52.742;15.242;2023-01-15T07:44:45;5.38;92.97
69335;SHT31;56477;52.742;15.242;2023-01-15T07:47:30;5.31;93.54
69335;SHT31;56477;52.742;15.242;2023-01-15T07:50:21;5.26;94.01
69335;SHT31;56477;52.742;15.242;2023-01-15T07:52:48;5.21;94.27
69335;SHT31;56477;52.742;15.242;2023-01-15T07:55:14;5.24;93.36
69335;SHT31;56477;52.742;15.242;2023-01-15T07:57:41;5.21;93.76
69335;SHT31;56477;52.742;15.242;2023-01-15T08:00:13;5.20;94.32
69335;SHT31;56477;52.742;15.242;2023-01-15T08:02:39;5.16;94.77
69335;SHT31;56477;52.742;15.242;2023-01-15T08:05:06;5.14;95.48
69335;SHT31;56477;52.742;15.242;2023-01-15T08:07:37;5.06;95.40
69335;SHT31;56477;52.742;15.242;2023-01-15T08:10:04;4.99;94.71
69335;SHT31;56477;52.742;15.242;2023-01-15T08:12:30;4.97;95.59
69335;SHT31;56477;52.742;15.242;2023-01-15T08:15:15;4.86;94.76
69335;SHT31;56477;52.742;15.242;2023-01-15T08:17:46;4.81;94.82
69335;SHT31;56477;52.742;15.242;2023-01-15T08:20:18;4.80;94.78
69335;SHT31;56477;52.742;15.242;2023-01-15T08:22:45;4.77;94.76
69335;SHT31;56477;52.742;15.242;2023-01-15T08:25:13;4.77;95.13
69335;SHT31;56477;52.742;15.242;2023-01-15T08:27:40;4.76;95.28
69335;SHT31;56477;52.742;15.242;2023-01-15T08:30:08;4.69;94.39
69335;SHT31;56477;52.742;15.242;2023-01-15T08:32:36;4.69;94.32
69335;SHT31;56477;52.742;15.242;2023-01-15T08:35:02;4.68;94.93
69335;SHT31;56477;52.742;15.242;2023-01-15T08:37:28;4.73;94.84
69335;SHT31;56477;52.742;15.242;2023-01-15T08:39:54;4.73;95.61
69335;SHT31;56477;52.742;15.242;2023-01-15T08:42:21;4.72;95.12
69335;SHT31;56477;52.742;15.242;2023-01-15T08:44:47;4.75;94.53
69335;SHT31;56477;52.742;15.242;2023-01-15T08:47:15;4.79;94.77
69335;SHT31;56477;52.742;15.242;2023-01-15T08:49:42;4.76;94.35
69335;SHT31;56477;52.742;15.242;2023-01-15T08:52:09;4.83;94.47
69335;SHT31;56477;52.742;15.242;2023-01-15T08:54:34;4.86;94.65
69335;SHT31;56477;52.742;15.242;2023-01-15T08:57:01;4.86;94.68
69335;SHT31;56477;52.742;15.242;2023-01-15T08:59:27;4.84;95.14
69335;SHT31;56477;52.742;15.242;2023-01-15T09:01:53;4.87;95.35
69335;SHT31;56477;52.742;15.242;2023-01-15T09:04:20;4.83;95.10
69335;SHT31;56477;52.742;15.242;2023-01-15T09:06:48;4.89;95.07
69335;SHT31;56477;52.742;15.242;2023-01-15T09:09:14;4.87;94.70
69335;SHT31;56477;52.742;15.242;2023-01-15T09:11:40;4.87;94.51
69335;SHT31;56477;52.742;15.242;2023-01-15T09:14:07;4.89;94.39
69335;SHT31;56477;52.742;15.242;2023-01-15T09:16:37;4.89;94.48
69335;SHT31;56477;52.742;15.242;2023-01-15T09:19:04;4.90;94.14
69335;SHT31;56477;52.742;15.242;2023-01-15T09:21:31;4.93;94.15
69335;SHT31;56477;52.742;15.242;2023-01-15T09:23:57;4.93;94.27
69335;SHT31;56477;52.742;15.242;2023-01-15T09:26:35;4.93;94.21
69335;SHT31;56477;52.742;15.242;2023-01-15T09:29:02;5.01;94.22
69335;SHT31;56477;52.742;15.242;2023-01-15T09:31:29;4.97;94.02
69335;SHT31;56477;52.742;15.242;2023-01-15T09:33:56;5.00;93.47
69335;SHT31;56477;52.742;15.242;2023-01-15T09:36:30;5.03;93.31
69335;SHT31;56477;52.742;15.242;2023-01-15T09:38:57;5.01;92.81
69335;SHT31;56477;52.742;15.242;2023-01-15T09:41:27;5.03;92.78
69335;SHT31;56477;52.742;15.242;2023-01-15T09:44:22;5.06;93.70
69335;SHT31;56477;52.742;15.242;2023-01-15T09:49:47;5.00;93.32
69335;SHT31;56477;52.742;15.242;2023-01-15T09:52:23;4.97;93.14
69335;SHT31;56477;52.742;15.242;2023-01-15T09:57:31;4.96;93.14
69335;SHT31;56477;52.742;15.242;2023-01-15T09:59:58;4.91;93.97
69335;SHT31;56477;52.742;15.242;2023-01-15T10:02:45;4.91;93.65
69335;SHT31;56477;52.742;15.242;2023-01-15T10:08:10;4.90;93.97
69335;SHT31;56477;52.742;15.242;2023-01-15T10:10:53;4.89;94.50
69335;SHT31;56477;52.742;15.242;2023-01-15T10:13:40;4.83;94.67
69335;SHT31;56477;52.742;15.242;2023-01-15T10:16:10;4.89;94.63
69335;SHT31;56477;52.742;15.242;2023-01-15T10:18:36;4.91;94.58
69335;SHT31;56477;52.742;15.242;2023-01-15T10:30:16;4.99;94.69
69335;SHT31;56477;52.742;15.242;2023-01-15T10:32:50;5.06;94.75
69335;SHT31;56477;52.742;15.242;2023-01-15T10:38:42;5.04;94.79
69335;SHT31;56477;52.742;15.242;2023-01-15T10:43:54;5.07;94.88
69335;SHT31;56477;52.742;15.242;2023-01-15T10:46:25;5.08;94.99
69335;SHT31;56477;52.742;15.242;2023-01-15T10:49:01;5.08;94.78
69335;SHT31;56477;52.742;15.242;2023-01-15T11:02:06;5.35;94.02
69335;SHT31;56477;52.742;15.242;2023-01-15T11:04:41;5.34;94.02
69335;SHT31;56477;52.742;15.242;2023-01-15T11:07:10;5.37;93.81
69335;SHT31;56477;52.742;15.242;2023-01-15T11:09:40;5.44;93.57
69335;SHT31;56477;52.742;15.242;2023-01-15T11:14:43;5.62;93.33
69335;SHT31;56477;52.742;15.242;2023-01-15T11:17:36;5.63;93.31
69335;SHT31;56477;52.742;15.242;2023-01-15T11:23:05;5.75;93.28
69335;SHT31;56477;52.742;15.242;2023-01-15T11:25:31;5.69;92.34
69335;SHT31;56477;52.742;15.242;2023-01-15T11:28:00;5.70;92.64
69335;SHT31;56477;52.742;15.242;2023-01-15T11:30:35;5.75;92.93
69335;SHT31;56477;52.742;15.242;2023-01-15T11:33:17;5.75;92.27
69335;SHT31;56477;52.742;15.242;2023-01-15T11:35:53;5.83;92.62
69335;SHT31;56477;52.742;15.242;2023-01-15T11:38:28;5.83;92.49
69335;SHT31;56477;52.742;15.242;2023-01-15T11:41:00;5.87;92.59
69335;SHT31;56477;52.742;15.242;2023-01-15T11:43:28;5.86;92.20
69335;SHT31;56477;52.742;15.242;2023-01-15T11:49:09;5.90;91.53
69335;SHT31;56477;52.742;15.242;2023-01-15T11:51:56;5.75;92.08
69335;SHT31;56477;52.742;15.242;2023-01-15T11:54:23;5.70;92.49
69335;SHT31;56477;52.742;15.242;2023-01-15T11:56:51;5.72;92.17
69335;SHT31;56477;52.742;15.242;2023-01-15T11:59:18;5.78;91.90
69335;SHT31;56477;52.742;15.242;2023-01-15T12:01:57;5.83;92.23
69335;SHT31;56477;52.742;15.242;2023-01-15T12:04:35;5.79;92.08
69335;SHT31;56477;52.742;15.242;2023-01-15T12:07:04;5.97;91.49
69335;SHT31;56477;52.742;15.242;2023-01-15T12:20:50;6.14;89.40
69335;SHT31;56477;52.742;15.242;2023-01-15T12:28:30;5.99;90.11
69335;SHT31;56477;52.742;15.242;2023-01-15T12:31:12;5.99;89.89
69335;SHT31;56477;52.742;15.242;2023-01-15T12:36:30;6.07;89.61
69335;SHT31;56477;52.742;15.242;2023-01-15T12:41:58;6.10;89.93
69335;SHT31;56477;52.742;15.242;2023-01-15T12:44:51;6.10;89.48
69335;SHT31;56477;52.742;15.242;2023-01-15T12:47:37;6.21;89.68
69335;SHT31;56477;52.742;15.242;2023-01-15T13:04:15;6.14;89.51
69335;SHT31;56477;52.742;15.242;2023-01-15T13:06:46;6.11;89.23
69335;SHT31;56477;52.742;15.242;2023-01-15T13:12:21;6.11;89.46
69335;SHT31;56477;52.742;15.242;2023-01-15T13:14:47;6.09;89.61
69335;SHT31;56477;52.742;15.242;2023-01-15T13:22:21;6.02;89.93
69335;SHT31;56477;52.742;15.242;2023-01-15T13:25:02;5.96;90.12
69335;SHT31;56477;52.742;15.242;2023-01-15T13:33:43;6.05;89.95
69335;SHT31;56477;52.742;15.242;2023-01-15T13:36:15;6.05;89.79
69335;SHT31;56477;52.742;15.242;2023-01-15T13:38:46;6.07;89.84
69335;SHT31;56477;52.742;15.242;2023-01-15T13:41:18;6.11;88.85
69335;SHT31;56477;52.742;15.242;2023-01-15T13:44:05;6.13;89.14
69335;SHT31;56477;52.742;15.242;2023-01-15T13:46:36;6.17;88.80
69335;SHT31;56477;52.742;15.242;2023-01-15T13:49:03;6.21;88.65
69335;SHT31;56477;52.742;15.242;2023-01-15T13:51:34;6.51;87.59
69335;SHT31;56477;52.742;15.242;2023-01-15T13:54:16;6.72;86.74
69335;SHT31;56477;52.742;15.242;2023-01-15T13:56:43;6.76;86.49
69335;SHT31;56477;52.742;15.242;2023-01-15T14:01:58;6.86;86.49
69335;SHT31;56477;52.742;15.242;2023-01-15T14:04:35;6.75;86.42
69335;SHT31;56477;52.742;15.242;2023-01-15T14:07:17;6.65;86.80
69335;SHT31;56477;52.742;15.242;2023-01-15T14:09:44;6.37;87.60
69335;SHT31;56477;52.742;15.242;2023-01-15T14:28:55;5.87;89.63
69335;SHT31;56477;52.742;15.242;2023-01-15T14:36:46;5.70;89.47
69335;SHT31;56477;52.742;15.242;2023-01-15T14:47:51;5.58;89.63
69335;SHT31;56477;52.742;15.242;2023-01-15T14:50:28;5.56;89.72
69335;SHT31;56477;52.742;15.242;2023-01-15T14:55:58;5.56;89.43
69335;SHT31;56477;52.742;15.242;2023-01-15T15:01:09;5.51;89.48
69335;SHT31;56477;52.742;15.242;2023-01-15T15:03:38;5.44;89.67
69335;SHT31;56477;52.742;15.242;2023-01-15T15:06:10;5.49;89.31
69335;SHT31;56477;52.742;15.242;2023-01-15T15:08:39;5.47;89.18
69335;SHT31;56477;52.742;15.242;2023-01-15T15:11:14;5.44;89.27
69335;SHT31;56477;52.742;15.242;2023-01-15T15:14:03;5.38;89.30
69335;SHT31;56477;52.742;15.242;2023-01-15T15:16:31;5.30;89.72
69335;SHT31;56477;52.742;15.242;2023-01-15T15:19:05;5.37;89.18
69335;SHT31;56477;52.742;15.242;2023-01-15T15:21:39;5.32;89.54
69335;SHT31;56477;52.742;15.242;2023-01-15T15:26:45;5.28;89.42
69335;SHT31;56477;52.742;15.242;2023-01-15T15:29:14;5.24;89.55
69335;SHT31;56477;52.742;15.242;2023-01-15T15:34:33;5.18;89.53
69335;SHT31;56477;52.742;15.242;2023-01-15T15:37:15;5.26;89.10
69335;SHT31;56477;52.742;15.242;2023-01-15T15:40:04;5.17;89.50
69335;SHT31;56477;52.742;15.242;2023-01-15T15:42:40;5.18;89.00
69335;SHT31;56477;52.742;15.242;2023-01-15T15:45:28;5.17;88.87
69335;SHT31;56477;52.742;15.242;2023-01-15T15:48:16;5.08;89.16
69335;SHT31;56477;52.742;15.242;2023-01-15T15:51:01;5.18;88.51
69335;SHT31;56477;52.742;15.242;2023-01-15T15:53:28;5.26;88.05
69335;SHT31;56477;52.742;15.242;2023-01-15T15:55:55;5.26;88.21
69335;SHT31;56477;52.742;15.242;2023-01-15T15:58:32;5.28;88.07
69335;SHT31;56477;52.742;15.242;2023-01-15T16:00:59;5.28;87.96
69335;SHT31;56477;52.742;15.242;2023-01-15T16:03:29;5.28;88.10
69335;SHT31;56477;52.742;15.242;2023-01-15T16:06:03;5.27;88.14
69335;SHT31;56477;52.742;15.242;2023-01-15T16:08:34;5.24;88.13
69335;SHT31;56477;52.742;15.242;2023-01-15T16:11:10;5.27;87.84
69335;SHT31;56477;52.742;15.242;2023-01-15T16:13:45;5.28;87.59
69335;SHT31;56477;52.742;15.242;2023-01-15T16:16:13;5.24;87.68
69335;SHT31;56477;52.742;15.242;2023-01-15T16:18:43;5.21;87.67
69335;SHT31;56477;52.742;15.242;2023-01-15T16:24:03;5.07;87.99
69335;SHT31;56477;52.742;15.242;2023-01-15T16:26:37;5.04;88.11
69335;SHT31;56477;52.742;15.242;2023-01-15T16:29:18;5.00;88.35
69335;SHT31;56477;52.742;15.242;2023-01-15T16:31:45;5.03;87.79
69335;SHT31;56477;52.742;15.242;2023-01-15T16:34:17;5.03;87.61
69335;SHT31;56477;52.742;15.242;2023-01-15T16:36:44;5.07;87.44
69335;SHT31;56477;52.742;15.242;2023-01-15T16:41:56;5.04;87.03
69335;SHT31;56477;52.742;15.242;2023-01-15T16:44:49;5.03;86.88
69335;SHT31;56477;52.742;15.242;2023-01-15T16:47:25;5.00;86.44
69335;SHT31;56477;52.742;15.242;2023-01-15T16:49:52;5.04;85.74
69335;SHT31;56477;52.742;15.242;2023-01-15T16:55:04;4.94;86.14
69335;SHT31;56477;52.742;15.242;2023-01-15T16:57:31;4.94;85.93
69335;SHT31;56477;52.742;15.242;2023-01-15T17:02:33;4.87;85.85
69335;SHT31;56477;52.742;15.242;2023-01-15T17:05:13;4.84;85.83
69335;SHT31;56477;52.742;15.242;2023-01-15T17:07:39;4.87;85.37
69335;SHT31;56477;52.742;15.242;2023-01-15T17:10:24;4.84;84.92
69335;SHT31;56477;52.742;15.242;2023-01-15T17:12:51;4.94;84.07
69335;SHT31;56477;52.742;15.242;2023-01-15T17:17:52;4.89;83.95
69335;SHT31;56477;52.742;15.242;2023-01-15T17:20:23;4.83;83.88
69335;SHT31;56477;52.742;15.242;2023-01-15T17:22:55;4.89;83.52
69335;SHT31;56477;52.742;15.242;2023-01-15T17:25:25;4.80;83.70
69335;SHT31;56477;52.742;15.242;2023-01-15T17:27:53;4.76;84.03
69335;SHT31;56477;52.742;15.242;2023-01-15T17:30:21;4.72;83.67
69335;SHT31;56477;52.742;15.242;2023-01-15T17:32:49;4.75;83.64
69335;SHT31;56477;52.742;15.242;2023-01-15T17:37:47;4.65;83.97
69335;SHT31;56477;52.742;15.242;2023-01-15T17:40:14;4.59;84.31
69335;SHT31;56477;52.742;15.242;2023-01-15T17:42:40;4.52;84.43
69335;SHT31;56477;52.742;15.242;2023-01-15T17:45:18;4.58;84.27
69335;SHT31;56477;52.742;15.242;2023-01-15T17:47:44;4.56;84.39
69335;SHT31;56477;52.742;15.242;2023-01-15T17:50:11;4.60;84.24
69335;SHT31;56477;52.742;15.242;2023-01-15T17:52:37;4.60;84.16
69335;SHT31;56477;52.742;15.242;2023-01-15T17:55:05;4.59;84.34
69335;SHT31;56477;52.742;15.242;2023-01-15T17:57:49;4.55;84.59
69335;SHT31;56477;52.742;15.242;2023-01-15T18:00:36;4.53;84.47
69335;SHT31;56477;52.742;15.242;2023-01-15T18:03:21;4.56;84.23
69335;SHT31;56477;52.742;15.242;2023-01-15T18:06:12;4.50;84.74
69335;SHT31;56477;52.742;15.242;2023-01-15T18:08:39;4.48;84.62
69335;SHT31;56477;52.742;15.242;2023-01-15T18:11:08;4.42;84.73
69335;SHT31;56477;52.742;15.242;2023-01-15T18:13:34;4.44;84.58
69335;SHT31;56477;52.742;15.242;2023-01-15T18:16:01;4.44;84.35
69335;SHT31;56477;52.742;15.242;2023-01-15T18:18:27;4.44;84.33
69335;SHT31;56477;52.742;15.242;2023-01-15T18:20:53;4.42;84.30
69335;SHT31;56477;52.742;15.242;2023-01-15T18:23:19;4.39;84.24
69335;SHT31;56477;52.742;15.242;2023-01-15T18:25:45;4.39;84.00
69335;SHT31;56477;52.742;15.242;2023-01-15T18:28:13;4.42;83.87
69335;SHT31;56477;52.742;15.242;2023-01-15T18:30:40;4.44;83.62
69335;SHT31;56477;52.742;15.242;2023-01-15T18:33:06;4.42;83.91
69335;SHT31;56477;52.742;15.242;2023-01-15T18:35:32;4.44;83.60
69335;SHT31;56477;52.742;15.242;2023-01-15T18:37:58;4.48;83.37
69335;SHT31;56477;52.742;15.242;2023-01-15T18:40:25;4.52;83.15
69335;SHT31;56477;52.742;15.242;2023-01-15T18:42:59;4.55;83.12
69335;SHT31;56477;52.742;15.242;2023-01-15T18:45:47;4.53;82.91
69335;SHT31;56477;52.742;15.242;2023-01-15T18:48:32;4.49;83.33
69335;SHT31;56477;52.742;15.242;2023-01-15T18:51:08;4.46;83.31
69335;SHT31;56477;52.742;15.242;2023-01-15T18:53:35;4.45;83.45
69335;SHT31;56477;52.742;15.242;2023-01-15T18:56:04;4.41;83.54
69335;SHT31;56477;52.742;15.242;2023-01-15T18:58:30;4.41;83.50